Time;durP1;ratioP1;P1;durP2;ratioP2;P2;SDS_P1;SDS_P2;PMS_P1;PMS_P2;Temp;Humidity;BMP_temperature;BMP_pressure;BME280_temperature;BME280_humidity;BME280_pressure;Samples;Min_cycle;Max_cycle;Signal;HPM_P1;HPM_P2
2023/05/27 00:02:14;;;;;;;3.40;2.67;;;;;;;;;;5096239;28;20302;-82
2023/05/27 00:04:41;;;;;;;10.63;3.22;;;;;;;;;;5083671;28;20962;-83
2023/05/27 00:07:10;;;;;;;8.70;4.03;;;;;;;;;;5085576;28;20212;-83
2023/05/27 00:09:38;;;;;;;9.73;4.30;;;;;;;;;;5087543;28;20225;-83
2023/05/27 00:12:06;;;;;;;5.35;4.22;;;;;;;;;;5086549;28;20307;-84
2023/05/27 00:14:33;;;;;;;6.25;3.78;;;;;;;;;;5091316;28;20207;-83
2023/05/27 00:17:03;;;;;;;6.15;3.05;;;;;;;;;;5092483;28;20196;-81
2023/05/27 00:19:32;;;;;;;4.95;2.90;;;;;;;;;;5093116;28;20645;-83
2023/05/27 00:21:59;;;;;;;8.82;3.30;;;;;;;;;;5091866;28;20228;-82
2023/05/27 00:24:28;;;;;;;12.13;3.63;;;;;;;;;;5089490;28;20752;-83
2023/05/27 00:26:56;;;;;;;9.00;3.40;;;;;;;;;;5091360;28;20283;-83
2023/05/27 00:29:24;;;;;;;7.05;3.58;;;;;;;;;;5107458;28;20598;-81
2023/05/27 00:31:52;;;;;;;4.22;2.95;;;;;;;;;;5076907;28;20274;-83
2023/05/27 00:34:19;;;;;;;11.55;5.05;;;;;;;;;;5096188;28;20727;-83
2023/05/27 00:36:46;;;;;;;6.63;2.80;;;;;;;;;;5096095;28;20583;-83
2023/05/27 00:39:14;;;;;;;3.38;2.40;;;;;;;;;;5092913;28;20195;-84
2023/05/27 00:41:48;;;;;;;4.88;3.63;;;;;;;;;;5091581;28;20311;-84
2023/05/27 00:44:15;;;;;;;6.68;3.50;;;;;;;;;;5094258;28;20199;-84
2023/05/27 00:46:43;;;;;;;6.85;3.45;;;;;;;;;;5095829;28;20648;-82
2023/05/27 00:49:10;;;;;;;16.42;3.60;;;;;;;;;;5086348;28;20315;-84
2023/05/27 00:51:37;;;;;;;6.20;3.65;;;;;;;;;;5101008;28;20225;-82
2023/05/27 00:54:05;;;;;;;6.53;3.33;;;;;;;;;;5095971;28;20200;-84
2023/05/27 00:56:33;;;;;;;11.90;3.95;;;;;;;;;;5087685;28;20680;-81
2023/05/27 00:59:02;;;;;;;6.88;3.13;;;;;;;;;;5091277;28;20316;-84
2023/05/27 01:01:29;;;;;;;5.65;3.35;;;;;;;;;;5097637;28;20223;-83
2023/05/27 01:03:57;;;;;;;4.63;2.97;;;;;;;;;;5097541;28;20295;-83
2023/05/27 01:06:32;;;;;;;4.55;3.47;;;;;;;;;;5096173;28;20227;-83
2023/05/27 01:09:06;;;;;;;8.73;3.53;;;;;;;;;;5093248;28;20203;-84
2023/05/27 01:11:39;;;;;;;6.93;3.13;;;;;;;;;;5096793;28;20288;-82
2023/05/27 01:14:12;;;;;;;9.75;3.92;;;;;;;;;;5097206;28;20196;-84
2023/05/27 01:16:43;;;;;;;8.43;4.28;;;;;;;;;;5094972;28;20214;-83
2023/05/27 01:19:16;;;;;;;7.32;3.58;;;;;;;;;;5096308;28;20200;-84
2023/05/27 01:21:45;;;;;;;7.50;2.97;;;;;;;;;;5077833;28;20237;-81
2023/05/27 01:24:13;;;;;;;7.28;3.67;;;;;;;;;;5097036;28;20622;-84
2023/05/27 01:26:42;;;;;;;9.85;3.60;;;;;;;;;;5095192;28;20207;-84
2023/05/27 01:29:09;;;;;;;5.10;2.97;;;;;;;;;;5096538;28;20197;-84
2023/05/27 01:31:47;;;;;;;5.88;3.08;;;;;;;;;;5096420;28;20220;-83
2023/05/27 01:34:18;;;;;;;5.18;3.35;;;;;;;;;;5094192;28;20580;-82
2023/05/27 01:36:55;;;;;;;5.05;2.95;;;;;;;;;;5089761;28;20195;-85
2023/05/27 01:39:25;;;;;;;5.72;3.28;;;;;;;;;;5096192;28;20604;-81
2023/05/27 01:41:54;;;;;;;6.13;3.80;;;;;;;;;;5097701;28;20223;-82
2023/05/27 01:44:22;;;;;;;4.63;3.28;;;;;;;;;;5113190;28;20200;-83
2023/05/27 01:46:49;;;;;;;5.68;3.65;;;;;;;;;;5107380;28;20214;-83
2023/05/27 01:49:17;;;;;;;4.68;2.42;;;;;;;;;;5091745;28;20192;-81
2023/05/27 01:51:44;;;;;;;5.60;3.20;;;;;;;;;;5102027;28;20785;-82
2023/05/27 01:54:12;;;;;;;6.55;3.65;;;;;;;;;;5090685;28;20659;-84
2023/05/27 01:56:41;;;;;;;5.55;3.13;;;;;;;;;;5095531;28;20653;-83
2023/05/27 01:59:08;;;;;;;4.95;3.28;;;;;;;;;;5092621;28;20200;-83
2023/05/27 02:01:36;;;;;;;6.30;3.58;;;;;;;;;;5093265;28;20294;-83
2023/05/27 02:04:03;;;;;;;6.35;3.67;;;;;;;;;;5094608;28;20200;-82
2023/05/27 02:06:32;;;;;;;8.40;3.75;;;;;;;;;;5102613;28;20689;-82
2023/05/27 02:09:00;;;;;;;4.65;4.15;;;;;;;;;;5092810;28;20261;-80
2023/05/27 02:11:27;;;;;;;6.90;3.47;;;;;;;;;;5102671;28;20229;-83
2023/05/27 02:13:56;;;;;;;4.97;3.05;;;;;;;;;;5094167;28;20206;-84
2023/05/27 02:16:24;;;;;;;3.72;2.70;;;;;;;;;;5094681;28;20624;-84
2023/05/27 02:18:52;;;;;;;3.42;2.95;;;;;;;;;;5092550;28;20287;-82
2023/05/27 02:21:19;;;;;;;5.53;2.88;;;;;;;;;;5091757;28;20238;-83
2023/05/27 02:23:47;;;;;;;5.68;3.70;;;;;;;;;;5093073;28;20249;-81
2023/05/27 02:26:14;;;;;;;6.82;2.50;;;;;;;;;;5074815;28;20232;-83
2023/05/27 02:28:42;;;;;;;4.78;2.65;;;;;;;;;;5085571;28;20196;-83
2023/05/27 02:31:11;;;;;;;4.38;2.60;;;;;;;;;;5092993;28;20714;-82
2023/05/27 02:33:38;;;;;;;4.88;3.10;;;;;;;;;;5093993;28;20196;-82
2023/05/27 02:36:06;;;;;;;4.13;2.90;;;;;;;;;;5080420;28;20220;-82
2023/05/27 02:38:34;;;;;;;3.60;2.53;;;;;;;;;;5090327;28;20196;-85
2023/05/27 02:41:02;;;;;;;6.68;2.70;;;;;;;;;;5092690;28;20227;-83
2023/05/27 02:43:30;;;;;;;4.72;3.10;;;;;;;;;;5094524;28;20203;-82
2023/05/27 02:45:57;;;;;;;5.88;3.25;;;;;;;;;;5093987;28;20243;-79
2023/05/27 02:48:26;;;;;;;3.17;2.55;;;;;;;;;;5093262;28;20267;-83
2023/05/27 02:50:53;;;;;;;4.28;3.15;;;;;;;;;;5100631;28;20223;-82
2023/05/27 02:53:21;;;;;;;6.40;3.95;;;;;;;;;;5094597;28;20285;-83
2023/05/27 02:55:48;;;;;;;8.50;3.38;;;;;;;;;;5092430;28;20197;-82
2023/05/27 02:58:16;;;;;;;5.80;3.95;;;;;;;;;;5110064;28;20196;-83
2023/05/27 03:00:43;;;;;;;4.93;3.10;;;;;;;;;;5105015;28;20201;-83
2023/05/27 03:03:11;;;;;;;6.43;3.35;;;;;;;;;;5102846;28;20216;-82
2023/05/27 03:05:40;;;;;;;4.22;2.65;;;;;;;;;;5092661;28;20196;-82
2023/05/27 03:08:07;;;;;;;4.80;2.85;;;;;;;;;;5092699;28;20650;-82
2023/05/27 03:10:35;;;;;;;5.53;3.05;;;;;;;;;;5089753;28;20231;-83
2023/05/27 03:13:02;;;;;;;3.38;2.63;;;;;;;;;;5100809;28;20203;-83
2023/05/27 03:15:31;;;;;;;5.57;2.90;;;;;;;;;;5085400;28;20676;-84
2023/05/27 03:17:58;;;;;;;3.55;2.50;;;;;;;;;;5092677;28;20736;-81
2023/05/27 03:20:26;;;;;;;6.43;2.58;;;;;;;;;;5096185;28;20618;-83
2023/05/27 03:22:55;;;;;;;7.78;3.97;;;;;;;;;;5107365;22;20235;-81
2023/05/27 03:25:22;;;;;;;4.35;3.05;;;;;;;;;;5074713;28;20291;-80
2023/05/27 03:27:50;;;;;;;4.22;3.08;;;;;;;;;;5074756;28;20280;-80
2023/05/27 03:30:17;;;;;;;4.53;3.35;;;;;;;;;;5073527;28;20296;-80
2023/05/27 03:32:45;;;;;;;3.80;2.50;;;;;;;;;;5076868;28;20307;-80
2023/05/27 03:35:12;;;;;;;3.70;2.72;;;;;;;;;;5074401;28;20204;-80
2023/05/27 03:37:40;;;;;;;3.83;2.95;;;;;;;;;;5074055;28;20613;-78
2023/05/27 03:40:11;;;;;;;6.05;3.60;;;;;;;;;;5077178;28;20287;-79
2023/05/27 03:42:38;;;;;;;3.92;2.90;;;;;;;;;;5081788;28;20315;-80
2023/05/27 03:45:07;;;;;;;4.25;2.78;;;;;;;;;;5073139;28;20578;-80
2023/05/27 03:47:35;;;;;;;5.95;2.42;;;;;;;;;;5080278;28;20204;-81
2023/05/27 03:50:03;;;;;;;4.47;3.15;;;;;;;;;;5081646;28;20205;-81
2023/05/27 03:52:30;;;;;;;7.20;3.47;;;;;;;;;;5073782;28;20225;-80
2023/05/27 03:54:58;;;;;;;6.65;4.55;;;;;;;;;;5072018;28;20297;-79
2023/05/27 03:57:27;;;;;;;6.88;3.15;;;;;;;;;;5069505;28;20680;-80
2023/05/27 03:59:54;;;;;;;4.22;2.70;;;;;;;;;;5078878;28;20196;-80
2023/05/27 04:02:22;;;;;;;5.10;3.35;;;;;;;;;;5075588;28;20217;-80
2023/05/27 04:04:49;;;;;;;7.97;3.25;;;;;;;;;;5073924;28;20208;-79
2023/05/27 04:07:17;;;;;;;5.30;3.35;;;;;;;;;;5072443;28;20204;-76
2023/05/27 04:09:45;;;;;;;3.45;2.45;;;;;;;;;;5073914;28;20254;-80
2023/05/27 04:12:12;;;;;;;5.63;2.90;;;;;;;;;;5071324;28;20246;-79
2023/05/27 04:14:41;;;;;;;4.45;3.70;;;;;;;;;;5073581;28;20199;-78
2023/05/27 04:17:09;;;;;;;3.67;2.70;;;;;;;;;;5080240;28;20196;-79
2023/05/27 04:19:37;;;;;;;5.78;2.72;;;;;;;;;;5076251;28;20636;-80
2023/05/27 04:22:05;;;;;;;6.40;3.17;;;;;;;;;;5071464;28;20286;-79
2023/05/27 04:24:32;;;;;;;4.10;2.70;;;;;;;;;;5070846;28;20193;-80
2023/05/27 04:27:01;;;;;;;7.78;3.72;;;;;;;;;;5074962;28;20283;-80
2023/05/27 04:29:28;;;;;;;4.47;3.42;;;;;;;;;;5075731;28;20661;-80
2023/05/27 04:31:57;;;;;;;3.92;2.40;;;;;;;;;;5080934;28;20306;-81
2023/05/27 04:34:24;;;;;;;3.63;2.40;;;;;;;;;;5078279;28;20227;-81
2023/05/27 04:36:52;;;;;;;9.40;2.97;;;;;;;;;;5076340;28;20205;-79
2023/05/27 04:39:19;;;;;;;3.35;2.53;;;;;;;;;;5074630;28;20205;-80
2023/05/27 04:41:48;;;;;;;3.03;2.20;;;;;;;;;;5093473;28;20295;-80
2023/05/27 04:44:17;;;;;;;6.53;3.17;;;;;;;;;;5076184;28;20201;-80
2023/05/27 04:46:44;;;;;;;3.40;3.10;;;;;;;;;;5072766;28;20185;-78
2023/05/27 04:49:13;;;;;;;5.70;2.92;;;;;;;;;;5090577;28;20201;-79
2023/05/27 04:51:41;;;;;;;7.32;3.70;;;;;;;;;;5087948;28;20232;-79
2023/05/27 04:54:08;;;;;;;6.15;3.05;;;;;;;;;;5075948;28;20626;-80
2023/05/27 04:56:36;;;;;;;3.63;2.80;;;;;;;;;;5077461;28;20197;-80
2023/05/27 04:59:04;;;;;;;6.75;3.40;;;;;;;;;;5082535;28;20269;-81
2023/05/27 05:01:48;;;;;;;4.22;2.90;;;;;;;;;;5088017;28;20195;-80
2023/05/27 05:04:17;;;;;;;3.15;2.47;;;;;;;;;;5077085;28;20196;-80
2023/05/27 05:06:45;;;;;;;7.75;3.38;;;;;;;;;;5079773;28;20193;-79
2023/05/27 05:09:12;;;;;;;4.85;2.50;;;;;;;;;;5077919;28;20232;-78
2023/05/27 05:11:40;;;;;;;7.85;3.90;;;;;;;;;;5082083;28;20213;-81
2023/05/27 05:14:07;;;;;;;12.13;4.18;;;;;;;;;;5075030;28;20224;-81
2023/05/27 05:16:34;;;;;;;8.10;3.70;;;;;;;;;;5077224;28;20655;-82
2023/05/27 05:19:02;;;;;;;12.48;6.00;;;;;;;;;;5074083;28;20727;-80
2023/05/27 05:21:31;;;;;;;8.60;4.05;;;;;;;;;;5077312;28;20284;-79
2023/05/27 05:23:58;;;;;;;8.05;4.45;;;;;;;;;;5079278;28;20233;-81
2023/05/27 05:26:26;;;;;;;9.05;3.83;;;;;;;;;;5083436;28;20280;-82
2023/05/27 05:28:53;;;;;;;10.32;4.30;;;;;;;;;;5073698;28;20291;-82
2023/05/27 05:31:20;;;;;;;8.20;4.40;;;;;;;;;;5074289;28;20224;-81
2023/05/27 05:33:48;;;;;;;5.43;3.90;;;;;;;;;;5074653;28;20260;-82
2023/05/27 05:36:15;;;;;;;7.85;3.67;;;;;;;;;;5087756;28;20192;-82
2023/05/27 05:38:44;;;;;;;5.90;3.40;;;;;;;;;;5060653;28;20224;-82
2023/05/27 05:41:12;;;;;;;4.57;2.70;;;;;;;;;;5082151;28;20200;-82
2023/05/27 05:43:39;;;;;;;6.60;3.65;;;;;;;;;;5086450;28;20300;-81
2023/05/27 05:46:07;;;;;;;4.05;3.17;;;;;;;;;;5073849;28;20208;-81
2023/05/27 05:48:34;;;;;;;5.45;3.42;;;;;;;;;;5072524;28;20203;-81
2023/05/27 05:51:02;;;;;;;5.45;4.07;;;;;;;;;;5076480;28;20209;-81
2023/05/27 05:53:31;;;;;;;8.25;4.68;;;;;;;;;;5074337;28;20228;-81
2023/05/27 05:56:01;;;;;;;4.05;3.00;;;;;;;;;;5075587;28;20307;-81
2023/05/27 05:58:28;;;;;;;6.18;4.70;;;;;;;;;;5074949;28;20205;-82
2023/05/27 06:00:56;;;;;;;6.22;4.28;;;;;;;;;;5076668;28;20196;-81
2023/05/27 06:03:23;;;;;;;6.43;4.30;;;;;;;;;;5075291;28;20692;-82
2023/05/27 06:05:51;;;;;;;8.85;3.95;;;;;;;;;;5073584;28;20571;-82
2023/05/27 06:08:18;;;;;;;4.88;3.67;;;;;;;;;;5072959;28;20295;-82
2023/05/27 06:10:46;;;;;;;4.50;3.72;;;;;;;;;;5083107;28;20199;-81
2023/05/27 06:13:15;;;;;;;7.70;4.43;;;;;;;;;;5074110;28;20282;-81
2023/05/27 06:15:42;;;;;;;8.23;4.35;;;;;;;;;;5073068;28;20284;-81
2023/05/27 06:18:22;;;;;;;8.27;3.60;;;;;;;;;;5074003;28;20203;-81
2023/05/27 06:20:55;;;;;;;5.18;3.38;;;;;;;;;;5076010;28;20201;-80
2023/05/27 06:23:22;;;;;;;5.70;3.60;;;;;;;;;;5073049;28;20232;-81
2023/05/27 06:25:50;;;;;;;8.23;3.45;;;;;;;;;;5076445;28;20279;-81
2023/05/27 06:28:18;;;;;;;8.00;4.28;;;;;;;;;;5073140;28;20284;-80
2023/05/27 06:30:46;;;;;;;6.78;3.92;;;;;;;;;;5068103;28;20205;-81
2023/05/27 06:33:15;;;;;;;4.82;3.38;;;;;;;;;;5073298;28;20231;-81
2023/05/27 06:35:43;;;;;;;8.57;3.88;;;;;;;;;;5075169;28;20280;-82
2023/05/27 06:38:11;;;;;;;13.38;4.55;;;;;;;;;;5076560;28;20269;-82
2023/05/27 06:40:39;;;;;;;6.90;3.38;;;;;;;;;;5082641;28;20204;-81
2023/05/27 06:43:06;;;;;;;11.85;4.28;;;;;;;;;;5073252;28;20311;-81
2023/05/27 06:45:35;;;;;;;7.70;3.72;;;;;;;;;;5073801;28;20277;-82
2023/05/27 06:48:02;;;;;;;6.88;4.00;;;;;;;;;;5079138;28;20746;-82
2023/05/27 06:50:30;;;;;;;8.57;4.47;;;;;;;;;;5082082;28;20292;-82
2023/05/27 06:52:57;;;;;;;5.60;3.42;;;;;;;;;;5092968;28;20242;-82
2023/05/27 06:55:25;;;;;;;3.15;2.85;;;;;;;;;;5093206;28;20641;-81
2023/05/27 06:57:52;;;;;;;4.72;3.10;;;;;;;;;;5083156;28;20193;-82
2023/05/27 07:00:20;;;;;;;6.70;3.65;;;;;;;;;;5083983;28;20235;-80
2023/05/27 07:02:49;;;;;;;5.30;3.60;;;;;;;;;;5071250;28;20220;-82
2023/05/27 07:05:17;;;;;;;4.38;3.28;;;;;;;;;;5071151;28;20220;-81
2023/05/27 07:07:44;;;;;;;4.65;2.83;;;;;;;;;;5079680;28;20209;-82
2023/05/27 07:10:12;;;;;;;3.30;2.40;;;;;;;;;;5091413;28;20203;-81
2023/05/27 07:12:39;;;;;;;5.75;3.70;;;;;;;;;;5085085;28;20319;-81
2023/05/27 07:15:09;;;;;;;4.35;3.40;;;;;;;;;;5084828;28;20257;-81
2023/05/27 07:17:36;;;;;;;5.13;3.60;;;;;;;;;;5067565;28;20205;-81
2023/05/27 07:20:07;;;;;;;6.40;3.80;;;;;;;;;;5063395;28;20212;-80
2023/05/27 07:22:34;;;;;;;4.32;2.65;;;;;;;;;;5069404;28;20224;-84
2023/05/27 07:25:02;;;;;;;3.05;2.50;;;;;;;;;;5076376;28;20296;-81
2023/05/27 07:27:29;;;;;;;3.75;2.95;;;;;;;;;;5074415;28;20201;-81
2023/05/27 07:29:57;;;;;;;2.80;2.50;;;;;;;;;;5084064;28;20200;-81
2023/05/27 07:32:25;;;;;;;2.58;2.10;;;;;;;;;;5073407;28;20216;-83
2023/05/27 07:34:52;;;;;;;3.97;3.17;;;;;;;;;;5073809;28;20238;-81
2023/05/27 07:37:23;;;;;;;5.32;4.25;;;;;;;;;;5071674;28;20280;-82
2023/05/27 07:39:51;;;;;;;6.55;3.28;;;;;;;;;;5078554;28;20194;-80
2023/05/27 07:42:19;;;;;;;5.25;3.03;;;;;;;;;;5071581;28;20221;-81
2023/05/27 07:44:46;;;;;;;4.30;3.28;;;;;;;;;;5067880;28;20189;-81
2023/05/27 07:47:13;;;;;;;15.77;4.28;;;;;;;;;;5069971;28;20197;-82
2023/05/27 07:49:41;;;;;;;5.47;3.60;;;;;;;;;;5074146;28;20200;-82
2023/05/27 07:52:08;;;;;;;7.18;3.08;;;;;;;;;;5072444;28;20232;-81
2023/05/27 07:54:37;;;;;;;4.45;3.05;;;;;;;;;;5070565;28;20223;-81
2023/05/27 07:57:06;;;;;;;5.75;2.67;;;;;;;;;;5072495;28;20207;-83
2023/05/27 07:59:33;;;;;;;3.65;2.47;;;;;;;;;;5074062;28;20204;-82
2023/05/27 08:02:01;;;;;;;3.08;2.33;;;;;;;;;;5073189;28;20223;-80
2023/05/27 08:04:29;;;;;;;2.90;2.20;;;;;;;;;;5083666;28;20257;-82
2023/05/27 08:06:56;;;;;;;2.75;1.95;;;;;;;;;;5074970;28;20204;-82
2023/05/27 08:09:24;;;;;;;3.08;2.65;;;;;;;;;;5075328;28;20273;-81
2023/05/27 08:11:53;;;;;;;5.10;2.63;;;;;;;;;;5074647;28;20220;-82
2023/05/27 08:14:21;;;;;;;4.45;2.83;;;;;;;;;;5073954;28;20320;-82
2023/05/27 08:16:48;;;;;;;2.70;2.17;;;;;;;;;;5078087;28;20200;-81
2023/05/27 08:19:17;;;;;;;6.35;3.72;;;;;;;;;;5071715;28;20258;-82
2023/05/27 08:21:44;;;;;;;4.65;2.33;;;;;;;;;;5070174;28;20198;-83
2023/05/27 08:24:12;;;;;;;7.68;3.63;;;;;;;;;;5070621;28;20638;-81
2023/05/27 08:26:39;;;;;;;5.70;2.83;;;;;;;;;;5076077;28;20192;-83
2023/05/27 08:29:08;;;;;;;4.68;3.13;;;;;;;;;;5074553;28;20660;-83
2023/05/27 08:31:36;;;;;;;5.50;3.63;;;;;;;;;;5076172;28;20200;-80
2023/05/27 08:34:03;;;;;;;16.25;4.50;;;;;;;;;;5074946;28;20311;-83
2023/05/27 08:36:31;;;;;;;5.18;2.95;;;;;;;;;;5077315;28;20708;-82
2023/05/27 08:38:59;;;;;;;6.25;2.97;;;;;;;;;;5072012;28;20628;-83
2023/05/27 08:41:27;;;;;;;5.80;3.17;;;;;;;;;;5076038;28;20193;-81
2023/05/27 08:43:55;;;;;;;7.20;3.20;;;;;;;;;;5075809;28;20190;-83
2023/05/27 08:46:24;;;;;;;4.68;3.30;;;;;;;;;;5078075;28;20201;-82
2023/05/27 08:48:53;;;;;;;4.40;2.83;;;;;;;;;;5067267;28;20295;-80
2023/05/27 08:51:20;;;;;;;6.55;3.13;;;;;;;;;;5069931;28;20675;-81
2023/05/27 08:53:48;;;;;;;3.97;3.08;;;;;;;;;;5071748;28;20232;-81
2023/05/27 08:56:18;;;;;;;3.70;2.40;;;;;;;;;;5075315;28;20197;-83
2023/05/27 08:58:46;;;;;;;8.70;3.15;;;;;;;;;;5068661;28;20616;-82
2023/05/27 09:01:16;;;;;;;6.47;2.15;;;;;;;;;;5072902;28;20197;-83
